sensor_id;sensor_type;location;lat;lon;timestamp;P1;durP1;ratioP1;P2;durP2;ratioP2
10150;SDS011;5116;52.318;4.644;2023-05-10T00:01:03;4.37;;;3.50;;
10150;SDS011;5116;52.318;4.644;2023-05-10T00:03:30;3.67;;;3.37;;
10150;SDS011;5116;52.318;4.644;2023-05-10T00:05:58;4.27;;;3.87;;
10150;SDS011;5116;52.318;4.644;2023-05-10T00:08:25;5.93;;;4.23;;
10150;SDS011;5116;52.318;4.644;2023-05-10T00:10:52;4.93;;;4.30;;
10150;SDS011;5116;52.318;4.644;2023-05-10T00:13:20;4.47;;;4.07;;
10150;SDS011;5116;52.318;4.644;2023-05-10T00:15:48;4.17;;;3.60;;
10150;SDS011;5116;52.318;4.644;2023-05-10T00:18:15;4.90;;;3.97;;
10150;SDS011;5116;52.318;4.644;2023-05-10T00:20:43;3.83;;;3.43;;
10150;SDS011;5116;52.318;4.644;2023-05-10T00:23:12;4.80;;;4.00;;
10150;SDS011;5116;52.318;4.644;2023-05-10T00:25:39;4.07;;;3.43;;
10150;SDS011;5116;52.318;4.644;2023-05-10T00:28:06;4.60;;;3.67;;
10150;SDS011;5116;52.318;4.644;2023-05-10T00:30:36;4.20;;;3.80;;
10150;SDS011;5116;52.318;4.644;2023-05-10T00:33:03;3.60;;;3.27;;
10150;SDS011;5116;52.318;4.644;2023-05-10T00:35:31;3.97;;;3.43;;
10150;SDS011;5116;52.318;4.644;2023-05-10T00:37:58;5.50;;;4.27;;
10150;SDS011;5116;52.318;4.644;2023-05-10T00:40:26;5.03;;;4.30;;
10150;SDS011;5116;52.318;4.644;2023-05-10T00:42:58;4.27;;;3.57;;
10150;SDS011;5116;52.318;4.644;2023-05-10T00:45:26;5.07;;;4.07;;
10150;SDS011;5116;52.318;4.644;2023-05-10T00:47:54;4.10;;;3.60;;
10150;SDS011;5116;52.318;4.644;2023-05-10T00:50:22;5.30;;;4.07;;
10150;SDS011;5116;52.318;4.644;2023-05-10T00:52:50;4.67;;;3.90;;
10150;SDS011;5116;52.318;4.644;2023-05-10T00:55:19;4.90;;;4.30;;
10150;SDS011;5116;52.318;4.644;2023-05-10T00:57:47;4.60;;;3.83;;
10150;SDS011;5116;52.318;4.644;2023-05-10T01:00:14;3.93;;;3.47;;
10150;SDS011;5116;52.318;4.644;2023-05-10T01:02:45;5.33;;;3.93;;
10150;SDS011;5116;52.318;4.644;2023-05-10T01:05:13;5.53;;;4.47;;
10150;SDS011;5116;52.318;4.644;2023-05-10T01:07:40;4.80;;;4.30;;
10150;SDS011;5116;52.318;4.644;2023-05-10T01:10:08;4.47;;;3.97;;
10150;SDS011;5116;52.318;4.644;2023-05-10T01:12:37;7.03;;;4.37;;
10150;SDS011;5116;52.318;4.644;2023-05-10T01:15:05;6.50;;;4.87;;
10150;SDS011;5116;52.318;4.644;2023-05-10T01:17:34;5.23;;;4.03;;
10150;SDS011;5116;52.318;4.644;2023-05-10T01:20:02;5.80;;;4.17;;
10150;SDS011;5116;52.318;4.644;2023-05-10T01:28:08;5.30;;;4.57;;
10150;SDS011;5116;52.318;4.644;2023-05-10T01:30:35;4.17;;;3.77;;
10150;SDS011;5116;52.318;4.644;2023-05-10T01:33:10;4.80;;;4.30;;
10150;SDS011;5116;52.318;4.644;2023-05-10T01:40:40;5.93;;;4.50;;
10150;SDS011;5116;52.318;4.644;2023-05-10T01:43:11;7.63;;;5.07;;
10150;SDS011;5116;52.318;4.644;2023-05-10T01:45:41;4.80;;;4.10;;
10150;SDS011;5116;52.318;4.644;2023-05-10T01:48:13;5.93;;;4.50;;
10150;SDS011;5116;52.318;4.644;2023-05-10T01:50:42;7.17;;;4.37;;
10150;SDS011;5116;52.318;4.644;2023-05-10T01:53:10;4.80;;;3.63;;
10150;SDS011;5116;52.318;4.644;2023-05-10T01:55:39;5.27;;;4.10;;
10150;SDS011;5116;52.318;4.644;2023-05-10T01:58:11;7.17;;;5.40;;
10150;SDS011;5116;52.318;4.644;2023-05-10T02:00:42;4.80;;;4.30;;
10150;SDS011;5116;52.318;4.644;2023-05-10T02:03:10;4.43;;;4.00;;
10150;SDS011;5116;52.318;4.644;2023-05-10T02:05:38;6.30;;;4.63;;
10150;SDS011;5116;52.318;4.644;2023-05-10T02:08:07;5.63;;;3.93;;
10150;SDS011;5116;52.318;4.644;2023-05-10T02:10:35;6.43;;;5.27;;
10150;SDS011;5116;52.318;4.644;2023-05-10T02:13:04;5.97;;;4.40;;
10150;SDS011;5116;52.318;4.644;2023-05-10T02:15:32;5.17;;;4.63;;
10150;SDS011;5116;52.318;4.644;2023-05-10T02:18:00;5.00;;;4.40;;
10150;SDS011;5116;52.318;4.644;2023-05-10T02:20:30;5.10;;;4.57;;
10150;SDS011;5116;52.318;4.644;2023-05-10T02:22:58;7.07;;;5.03;;
10150;SDS011;5116;52.318;4.644;2023-05-10T02:25:27;5.80;;;4.50;;
10150;SDS011;5116;52.318;4.644;2023-05-10T02:27:55;6.70;;;4.47;;
10150;SDS011;5116;52.318;4.644;2023-05-10T02:30:23;4.43;;;4.03;;
10150;SDS011;5116;52.318;4.644;2023-05-10T02:32:51;4.97;;;4.30;;
10150;SDS011;5116;52.318;4.644;2023-05-10T02:35:19;6.73;;;4.93;;
10150;SDS011;5116;52.318;4.644;2023-05-10T02:37:46;7.03;;;4.97;;
10150;SDS011;5116;52.318;4.644;2023-05-10T02:40:14;4.93;;;4.43;;
10150;SDS011;5116;52.318;4.644;2023-05-10T02:42:43;7.33;;;4.67;;
10150;SDS011;5116;52.318;4.644;2023-05-10T02:45:11;8.43;;;5.20;;
10150;SDS011;5116;52.318;4.644;2023-05-10T02:47:41;6.80;;;4.67;;
10150;SDS011;5116;52.318;4.644;2023-05-10T02:50:10;7.23;;;4.40;;
10150;SDS011;5116;52.318;4.644;2023-05-10T02:52:42;4.90;;;4.27;;
10150;SDS011;5116;52.318;4.644;2023-05-10T02:55:11;5.57;;;4.30;;
10150;SDS011;5116;52.318;4.644;2023-05-10T02:57:41;6.30;;;4.10;;
10150;SDS011;5116;52.318;4.644;2023-05-10T03:00:09;5.33;;;4.57;;
10150;SDS011;5116;52.318;4.644;2023-05-10T03:02:37;4.87;;;4.33;;
10150;SDS011;5116;52.318;4.644;2023-05-10T03:05:04;6.63;;;4.83;;
10150;SDS011;5116;52.318;4.644;2023-05-10T03:07:32;4.77;;;3.67;;
10150;SDS011;5116;52.318;4.644;2023-05-10T03:10:00;5.00;;;3.73;;
10150;SDS011;5116;52.318;4.644;2023-05-10T03:12:33;4.80;;;3.77;;
10150;SDS011;5116;52.318;4.644;2023-05-10T03:17:40;4.97;;;4.27;;
10150;SDS011;5116;52.318;4.644;2023-05-10T03:20:12;6.67;;;3.83;;
10150;SDS011;5116;52.318;4.644;2023-05-10T03:22:44;4.03;;;3.53;;
10150;SDS011;5116;52.318;4.644;2023-05-10T03:25:13;6.03;;;4.13;;
10150;SDS011;5116;52.318;4.644;2023-05-10T03:27:43;6.00;;;4.37;;
10150;SDS011;5116;52.318;4.644;2023-05-10T03:30:11;4.47;;;3.73;;
10150;SDS011;5116;52.318;4.644;2023-05-10T03:32:40;5.60;;;4.10;;
10150;SDS011;5116;52.318;4.644;2023-05-10T03:35:11;6.47;;;4.00;;
10150;SDS011;5116;52.318;4.644;2023-05-10T03:37:40;7.23;;;3.80;;
10150;SDS011;5116;52.318;4.644;2023-05-10T03:40:07;4.30;;;3.20;;
10150;SDS011;5116;52.318;4.644;2023-05-10T03:42:37;4.87;;;3.70;;
10150;SDS011;5116;52.318;4.644;2023-05-10T03:45:05;4.70;;;3.07;;
10150;SDS011;5116;52.318;4.644;2023-05-10T03:47:33;4.60;;;3.40;;
10150;SDS011;5116;52.318;4.644;2023-05-10T03:50:00;4.37;;;3.23;;
10150;SDS011;5116;52.318;4.644;2023-05-10T03:52:29;4.03;;;3.27;;
10150;SDS011;5116;52.318;4.644;2023-05-10T03:54:58;5.63;;;3.73;;
10150;SDS011;5116;52.318;4.644;2023-05-10T03:57:25;4.80;;;3.70;;
10150;SDS011;5116;52.318;4.644;2023-05-10T03:59:52;5.73;;;3.43;;
10150;SDS011;5116;52.318;4.644;2023-05-10T04:02:20;4.60;;;3.40;;
10150;SDS011;5116;52.318;4.644;2023-05-10T04:04:47;3.40;;;3.07;;
10150;SDS011;5116;52.318;4.644;2023-05-10T04:07:14;4.60;;;3.33;;
10150;SDS011;5116;52.318;4.644;2023-05-10T04:09:42;3.83;;;3.07;;
10150;SDS011;5116;52.318;4.644;2023-05-10T04:12:09;6.57;;;4.20;;
10150;SDS011;5116;52.318;4.644;2023-05-10T04:14:37;4.83;;;3.53;;
10150;SDS011;5116;52.318;4.644;2023-05-10T04:17:05;4.13;;;3.37;;
10150;SDS011;5116;52.318;4.644;2023-05-10T04:19:32;3.93;;;3.30;;
10150;SDS011;5116;52.318;4.644;2023-05-10T04:22:00;4.33;;;3.17;;
10150;SDS011;5116;52.318;4.644;2023-05-10T04:24:29;3.50;;;3.13;;
10150;SDS011;5116;52.318;4.644;2023-05-10T04:26:56;4.33;;;3.20;;
10150;SDS011;5116;52.318;4.644;2023-05-10T04:29:23;3.80;;;3.23;;
10150;SDS011;5116;52.318;4.644;2023-05-10T04:31:51;3.83;;;3.43;;
10150;SDS011;5116;52.318;4.644;2023-05-10T04:34:20;6.20;;;3.50;;
10150;SDS011;5116;52.318;4.644;2023-05-10T04:36:47;4.00;;;3.30;;
10150;SDS011;5116;52.318;4.644;2023-05-10T04:39:14;4.00;;;3.37;;
10150;SDS011;5116;52.318;4.644;2023-05-10T04:41:42;3.20;;;2.90;;
10150;SDS011;5116;52.318;4.644;2023-05-10T04:44:09;6.23;;;3.77;;
10150;SDS011;5116;52.318;4.644;2023-05-10T04:46:36;5.93;;;3.83;;
10150;SDS011;5116;52.318;4.644;2023-05-10T04:49:04;3.80;;;3.37;;
10150;SDS011;5116;52.318;4.644;2023-05-10T04:51:31;4.10;;;3.47;;
10150;SDS011;5116;52.318;4.644;2023-05-10T04:53:59;6.53;;;3.17;;
10150;SDS011;5116;52.318;4.644;2023-05-10T04:56:32;4.33;;;3.23;;
10150;SDS011;5116;52.318;4.644;2023-05-10T04:59:00;6.20;;;4.00;;
10150;SDS011;5116;52.318;4.644;2023-05-10T05:01:27;4.27;;;3.73;;
10150;SDS011;5116;52.318;4.644;2023-05-10T05:03:54;4.27;;;3.20;;
10150;SDS011;5116;52.318;4.644;2023-05-10T05:06:22;4.70;;;3.03;;
10150;SDS011;5116;52.318;4.644;2023-05-10T05:08:51;3.53;;;3.20;;
10150;SDS011;5116;52.318;4.644;2023-05-10T05:11:18;4.53;;;3.37;;
10150;SDS011;5116;52.318;4.644;2023-05-10T05:13:45;6.53;;;3.80;;
10150;SDS011;5116;52.318;4.644;2023-05-10T05:16:13;4.47;;;3.73;;
10150;SDS011;5116;52.318;4.644;2023-05-10T05:18:40;4.47;;;3.20;;
10150;SDS011;5116;52.318;4.644;2023-05-10T05:21:14;5.63;;;3.83;;
10150;SDS011;5116;52.318;4.644;2023-05-10T05:23:42;5.13;;;3.17;;
10150;SDS011;5116;52.318;4.644;2023-05-10T05:26:10;3.20;;;2.73;;
10150;SDS011;5116;52.318;4.644;2023-05-10T05:28:37;3.87;;;3.13;;
10150;SDS011;5116;52.318;4.644;2023-05-10T05:31:05;3.33;;;3.00;;
10150;SDS011;5116;52.318;4.644;2023-05-10T05:33:34;4.17;;;2.73;;
10150;SDS011;5116;52.318;4.644;2023-05-10T05:36:02;3.50;;;3.20;;
10150;SDS011;5116;52.318;4.644;2023-05-10T05:38:29;4.30;;;3.27;;
10150;SDS011;5116;52.318;4.644;2023-05-10T05:40:57;4.57;;;3.13;;
10150;SDS011;5116;52.318;4.644;2023-05-10T05:43:24;4.33;;;3.43;;
10150;SDS011;5116;52.318;4.644;2023-05-10T05:45:52;5.37;;;3.20;;
10150;SDS011;5116;52.318;4.644;2023-05-10T05:48:20;4.77;;;3.50;;
10150;SDS011;5116;52.318;4.644;2023-05-10T05:50:47;4.67;;;2.97;;
10150;SDS011;5116;52.318;4.644;2023-05-10T05:53:15;4.77;;;3.20;;
10150;SDS011;5116;52.318;4.644;2023-05-10T05:55:52;4.50;;;3.50;;
10150;SDS011;5116;52.318;4.644;2023-05-10T05:58:20;4.83;;;3.30;;
10150;SDS011;5116;52.318;4.644;2023-05-10T06:00:48;4.00;;;3.40;;
10150;SDS011;5116;52.318;4.644;2023-05-10T06:03:15;4.17;;;3.43;;
10150;SDS011;5116;52.318;4.644;2023-05-10T06:05:43;4.40;;;3.10;;
10150;SDS011;5116;52.318;4.644;2023-05-10T06:08:10;7.70;;;3.90;;
10150;SDS011;5116;52.318;4.644;2023-05-10T06:10:38;4.20;;;3.27;;
10150;SDS011;5116;52.318;4.644;2023-05-10T06:13:05;4.00;;;2.93;;
10150;SDS011;5116;52.318;4.644;2023-05-10T06:15:33;5.35;;;4.13;;
10150;SDS011;5116;52.318;4.644;2023-05-10T06:18:00;3.17;;;2.80;;
10150;SDS011;5116;52.318;4.644;2023-05-10T06:20:28;3.80;;;3.33;;
10150;SDS011;5116;52.318;4.644;2023-05-10T06:22:58;4.03;;;3.30;;
10150;SDS011;5116;52.318;4.644;2023-05-10T06:25:26;4.10;;;3.13;;
10150;SDS011;5116;52.318;4.644;2023-05-10T06:27:53;3.20;;;2.83;;
10150;SDS011;5116;52.318;4.644;2023-05-10T06:30:24;3.57;;;2.97;;
10150;SDS011;5116;52.318;4.644;2023-05-10T06:32:54;4.53;;;3.27;;
10150;SDS011;5116;52.318;4.644;2023-05-10T06:35:22;3.30;;;2.60;;
10150;SDS011;5116;52.318;4.644;2023-05-10T06:37:49;3.47;;;2.87;;
10150;SDS011;5116;52.318;4.644;2023-05-10T06:40:18;4.33;;;3.13;;
10150;SDS011;5116;52.318;4.644;2023-05-10T06:42:47;3.67;;;2.97;;
10150;SDS011;5116;52.318;4.644;2023-05-10T06:45:14;3.37;;;3.07;;
10150;SDS011;5116;52.318;4.644;2023-05-10T06:47:43;3.13;;;2.40;;
10150;SDS011;5116;52.318;4.644;2023-05-10T06:50:11;4.13;;;2.70;;
10150;SDS011;5116;52.318;4.644;2023-05-10T06:52:38;4.00;;;2.93;;
10150;SDS011;5116;52.318;4.644;2023-05-10T06:55:06;3.83;;;2.80;;
10150;SDS011;5116;52.318;4.644;2023-05-10T06:57:33;2.77;;;2.53;;
10150;SDS011;5116;52.318;4.644;2023-05-10T07:00:01;2.30;;;2.10;;
10150;SDS011;5116;52.318;4.644;2023-05-10T07:02:30;3.43;;;2.43;;
10150;SDS011;5116;52.318;4.644;2023-05-10T07:04:58;2.37;;;2.17;;
10150;SDS011;5116;52.318;4.644;2023-05-10T07:07:28;2.40;;;2.20;;
10150;SDS011;5116;52.318;4.644;2023-05-10T07:09:56;2.87;;;2.53;;
10150;SDS011;5116;52.318;4.644;2023-05-10T07:12:24;2.53;;;2.23;;
10150;SDS011;5116;52.318;4.644;2023-05-10T07:14:51;4.30;;;2.60;;
10150;SDS011;5116;52.318;4.644;2023-05-10T07:17:19;2.77;;;2.57;;
10150;SDS011;5116;52.318;4.644;2023-05-10T07:19:46;4.27;;;2.80;;
10150;SDS011;5116;52.318;4.644;2023-05-10T07:22:17;3.53;;;2.20;;
10150;SDS011;5116;52.318;4.644;2023-05-10T07:24:44;2.50;;;2.30;;
10150;SDS011;5116;52.318;4.644;2023-05-10T07:27:11;3.10;;;2.27;;
10150;SDS011;5116;52.318;4.644;2023-05-10T07:29:39;3.30;;;2.60;;
10150;SDS011;5116;52.318;4.644;2023-05-10T07:32:06;2.80;;;2.27;;
10150;SDS011;5116;52.318;4.644;2023-05-10T07:34:34;3.40;;;2.60;;
10150;SDS011;5116;52.318;4.644;2023-05-10T07:37:01;3.83;;;2.20;;
10150;SDS011;5116;52.318;4.644;2023-05-10T07:39:29;2.70;;;2.23;;
10150;SDS011;5116;52.318;4.644;2023-05-10T07:41:56;2.30;;;2.10;;
10150;SDS011;5116;52.318;4.644;2023-05-10T07:44:23;3.27;;;2.63;;
10150;SDS011;5116;52.318;4.644;2023-05-10T07:46:51;2.90;;;2.40;;
10150;SDS011;5116;52.318;4.644;2023-05-10T07:49:18;3.37;;;2.20;;
10150;SDS011;5116;52.318;4.644;2023-05-10T07:51:46;2.60;;;2.30;;
10150;SDS011;5116;52.318;4.644;2023-05-10T07:54:13;3.47;;;2.17;;
10150;SDS011;5116;52.318;4.644;2023-05-10T07:56:41;3.10;;;2.33;;
10150;SDS011;5116;52.318;4.644;2023-05-10T07:59:16;3.40;;;2.60;;
10150;SDS011;5116;52.318;4.644;2023-05-10T08:01:44;2.93;;;2.47;;
10150;SDS011;5116;52.318;4.644;2023-05-10T08:04:11;2.97;;;2.43;;
10150;SDS011;5116;52.318;4.644;2023-05-10T08:06:39;2.63;;;2.40;;
10150;SDS011;5116;52.318;4.644;2023-05-10T08:09:07;3.10;;;2.47;;
10150;SDS011;5116;52.318;4.644;2023-05-10T08:11:34;2.43;;;2.10;;
10150;SDS011;5116;52.318;4.644;2023-05-10T08:14:02;4.57;;;2.57;;
10150;SDS011;5116;52.318;4.644;2023-05-10T08:16:29;2.50;;;2.30;;
10150;SDS011;5116;52.318;4.644;2023-05-10T08:18:56;2.57;;;2.10;;
10150;SDS011;5116;52.318;4.644;2023-05-10T08:21:24;3.17;;;2.53;;
10150;SDS011;5116;52.318;4.644;2023-05-10T08:23:52;2.30;;;2.10;;
10150;SDS011;5116;52.318;4.644;2023-05-10T08:26:20;3.03;;;2.50;;
10150;SDS011;5116;52.318;4.644;2023-05-10T08:28:47;2.83;;;2.40;;
10150;SDS011;5116;52.318;4.644;2023-05-10T08:31:15;4.03;;;2.43;;
10150;SDS011;5116;52.318;4.644;2023-05-10T08:33:42;3.40;;;2.33;;
10150;SDS011;5116;52.318;4.644;2023-05-10T08:36:10;3.40;;;2.47;;
10150;SDS011;5116;52.318;4.644;2023-05-10T08:38:37;3.30;;;2.50;;
10150;SDS011;5116;52.318;4.644;2023-05-10T08:41:05;2.67;;;2.27;;
10150;SDS011;5116;52.318;4.644;2023-05-10T08:43:32;2.23;;;2.03;;
10150;SDS011;5116;52.318;4.644;2023-05-10T08:46:03;2.90;;;2.33;;
10150;SDS011;5116;52.318;4.644;2023-05-10T08:48:32;2.77;;;2.43;;
10150;SDS011;5116;52.318;4.644;2023-05-10T08:51:01;2.70;;;2.33;;
10150;SDS011;5116;52.318;4.644;2023-05-10T08:53:31;2.70;;;2.33;;
10150;SDS011;5116;52.318;4.644;2023-05-10T08:56:02;2.27;;;2.03;;
10150;SDS011;5116;52.318;4.644;2023-05-10T08:58:30;3.00;;;2.20;;
10150;SDS011;5116;52.318;4.644;2023-05-10T09:00:57;2.53;;;2.23;;
10150;SDS011;5116;52.318;4.644;2023-05-10T09:03:26;2.77;;;2.30;;
10150;SDS011;5116;52.318;4.644;2023-05-10T09:05:53;2.40;;;2.20;;
10150;SDS011;5116;52.318;4.644;2023-05-10T09:08:25;2.17;;;1.93;;
10150;SDS011;5116;52.318;4.644;2023-05-10T09:10:54;2.60;;;2.13;;
10150;SDS011;5116;52.318;4.644;2023-05-10T09:13:22;2.77;;;2.50;;
10150;SDS011;5116;52.318;4.644;2023-05-10T09:15:49;2.93;;;2.63;;
10150;SDS011;5116;52.318;4.644;2023-05-10T09:18:17;2.43;;;2.07;;
10150;SDS011;5116;52.318;4.644;2023-05-10T09:20:45;2.07;;;1.97;;
10150;SDS011;5116;52.318;4.644;2023-05-10T09:23:12;2.30;;;2.07;;
10150;SDS011;5116;52.318;4.644;2023-05-10T09:25:41;2.23;;;1.87;;
10150;SDS011;5116;52.318;4.644;2023-05-10T09:28:09;2.50;;;2.10;;
10150;SDS011;5116;52.318;4.644;2023-05-10T09:30:37;3.10;;;2.63;;
10150;SDS011;5116;52.318;4.644;2023-05-10T09:33:04;2.53;;;2.17;;
10150;SDS011;5116;52.318;4.644;2023-05-10T09:35:32;2.27;;;2.00;;
10150;SDS011;5116;52.318;4.644;2023-05-10T09:38:02;2.40;;;2.20;;
10150;SDS011;5116;52.318;4.644;2023-05-10T09:40:30;3.37;;;2.47;;
10150;SDS011;5116;52.318;4.644;2023-05-10T09:43:02;2.53;;;2.07;;
10150;SDS011;5116;52.318;4.644;2023-05-10T09:45:30;2.10;;;1.90;;
10150;SDS011;5116;52.318;4.644;2023-05-10T09:48:00;2.53;;;2.20;;
10150;SDS011;5116;52.318;4.644;2023-05-10T09:50:28;3.53;;;2.17;;
10150;SDS011;5116;52.318;4.644;2023-05-10T09:53:00;2.97;;;2.40;;
10150;SDS011;5116;52.318;4.644;2023-05-10T09:58:03;2.13;;;1.93;;
10150;SDS011;5116;52.318;4.644;2023-05-10T10:00:36;2.90;;;2.60;;
10150;SDS011;5116;52.318;4.644;2023-05-10T10:03:04;4.10;;;2.63;;
10150;SDS011;5116;52.318;4.644;2023-05-10T10:05:33;2.63;;;2.40;;
10150;SDS011;5116;52.318;4.644;2023-05-10T10:08:02;3.43;;;2.40;;
10150;SDS011;5116;52.318;4.644;2023-05-10T10:10:31;2.20;;;2.00;;
10150;SDS011;5116;52.318;4.644;2023-05-10T10:12:58;2.63;;;2.40;;
10150;SDS011;5116;52.318;4.644;2023-05-10T10:15:25;3.07;;;2.73;;
10150;SDS011;5116;52.318;4.644;2023-05-10T10:17:53;3.43;;;2.43;;
10150;SDS011;5116;52.318;4.644;2023-05-10T10:20:22;3.30;;;2.50;;
10150;SDS011;5116;52.318;4.644;2023-05-10T10:22:50;2.77;;;2.40;;
10150;SDS011;5116;52.318;4.644;2023-05-10T10:25:18;2.83;;;2.33;;
10150;SDS011;5116;52.318;4.644;2023-05-10T10:30:42;3.20;;;2.10;;
10150;SDS011;5116;52.318;4.644;2023-05-10T10:33:17;2.43;;;2.23;;
10150;SDS011;5116;52.318;4.644;2023-05-10T10:35:54;4.60;;;2.60;;
10150;SDS011;5116;52.318;4.644;2023-05-10T10:38:22;2.30;;;2.10;;
10150;SDS011;5116;52.318;4.644;2023-05-10T10:41:01;2.53;;;2.27;;
10150;SDS011;5116;52.318;4.644;2023-05-10T10:43:29;3.67;;;2.47;;
10150;SDS011;5116;52.318;4.644;2023-05-10T10:46:15;4.40;;;2.63;;
10150;SDS011;5116;52.318;4.644;2023-05-10T10:48:47;2.47;;;2.23;;
10150;SDS011;5116;52.318;4.644;2023-05-10T10:51:15;2.77;;;2.50;;
10150;SDS011;5116;52.318;4.644;2023-05-10T10:53:43;3.70;;;2.80;;
10150;SDS011;5116;52.318;4.644;2023-05-10T10:56:11;4.13;;;2.50;;
10150;SDS011;5116;52.318;4.644;2023-05-10T10:58:40;2.50;;;2.30;;
10150;SDS011;5116;52.318;4.644;2023-05-10T11:01:12;4.27;;;2.80;;
10150;SDS011;5116;52.318;4.644;2023-05-10T11:03:40;3.40;;;2.40;;
10150;SDS011;5116;52.318;4.644;2023-05-10T11:06:07;3.20;;;2.53;;
10150;SDS011;5116;52.318;4.644;2023-05-10T11:08:41;4.73;;;2.87;;
10150;SDS011;5116;52.318;4.644;2023-05-10T11:11:14;3.60;;;3.03;;
10150;SDS011;5116;52.318;4.644;2023-05-10T11:13:42;4.30;;;2.77;;
10150;SDS011;5116;52.318;4.644;2023-05-10T11:16:14;4.07;;;3.10;;
10150;SDS011;5116;52.318;4.644;2023-05-10T11:21:32;3.00;;;2.70;;
10150;SDS011;5116;52.318;4.644;2023-05-10T11:24:00;4.43;;;3.10;;
10150;SDS011;5116;52.318;4.644;2023-05-10T11:26:33;3.87;;;2.83;;
10150;SDS011;5116;52.318;4.644;2023-05-10T11:29:01;4.17;;;3.13;;
10150;SDS011;5116;52.318;4.644;2023-05-10T11:31:31;3.03;;;2.43;;
10150;SDS011;5116;52.318;4.644;2023-05-10T11:33:59;3.17;;;2.53;;
10150;SDS011;5116;52.318;4.644;2023-05-10T11:36:33;2.80;;;2.43;;
10150;SDS011;5116;52.318;4.644;2023-05-10T11:39:01;5.20;;;3.30;;
10150;SDS011;5116;52.318;4.644;2023-05-10T11:41:31;3.60;;;2.60;;
10150;SDS011;5116;52.318;4.644;2023-05-10T11:43:58;4.87;;;3.07;;
10150;SDS011;5116;52.318;4.644;2023-05-10T11:46:27;3.83;;;3.17;;
10150;SDS011;5116;52.318;4.644;2023-05-10T11:48:59;4.80;;;3.47;;
10150;SDS011;5116;52.318;4.644;2023-05-10T11:51:34;4.43;;;2.60;;
10150;SDS011;5116;52.318;4.644;2023-05-10T11:54:09;4.90;;;3.30;;
10150;SDS011;5116;52.318;4.644;2023-05-10T11:56:37;4.67;;;3.10;;
10150;SDS011;5116;52.318;4.644;2023-05-10T11:59:05;3.57;;;3.07;;
10150;SDS011;5116;52.318;4.644;2023-05-10T12:01:32;7.60;;;3.60;;
10150;SDS011;5116;52.318;4.644;2023-05-10T12:04:00;4.30;;;3.17;;
10150;SDS011;5116;52.318;4.644;2023-05-10T12:06:28;4.40;;;3.23;;
10150;SDS011;5116;52.318;4.644;2023-05-10T12:08:57;7.53;;;3.87;;
10150;SDS011;5116;52.318;4.644;2023-05-10T12:11:25;5.00;;;3.60;;
10150;SDS011;5116;52.318;4.644;2023-05-10T12:13:54;4.80;;;3.60;;
10150;SDS011;5116;52.318;4.644;2023-05-10T12:16:23;4.60;;;3.53;;
10150;SDS011;5116;52.318;4.644;2023-05-10T12:18:51;6.20;;;3.67;;
10150;SDS011;5116;52.318;4.644;2023-05-10T12:21:19;5.07;;;3.50;;
10150;SDS011;5116;52.318;4.644;2023-05-10T12:23:51;5.50;;;3.60;;
10150;SDS011;5116;52.318;4.644;2023-05-10T12:26:22;5.00;;;3.77;;
10150;SDS011;5116;52.318;4.644;2023-05-10T12:28:50;3.60;;;3.27;;
10150;SDS011;5116;52.318;4.644;2023-05-10T12:31:48;5.47;;;3.50;;
10150;SDS011;5116;52.318;4.644;2023-05-10T12:34:51;7.27;;;3.83;;
10150;SDS011;5116;52.318;4.644;2023-05-10T12:37:10;4.50;;;3.63;;
10150;SDS011;5116;52.318;4.644;2023-05-10T12:39:38;5.30;;;3.80;;
10150;SDS011;5116;52.318;4.644;2023-05-10T12:42:06;5.33;;;3.70;;
10150;SDS011;5116;52.318;4.644;2023-05-10T12:44:34;3.77;;;2.93;;
10150;SDS011;5116;52.318;4.644;2023-05-10T12:47:01;3.17;;;2.80;;
10150;SDS011;5116;52.318;4.644;2023-05-10T12:49:28;4.93;;;3.20;;
10150;SDS011;5116;52.318;4.644;2023-05-10T12:51:56;4.80;;;2.80;;
10150;SDS011;5116;52.318;4.644;2023-05-10T12:54:23;4.17;;;3.13;;
10150;SDS011;5116;52.318;4.644;2023-05-10T12:56:51;4.93;;;3.20;;
10150;SDS011;5116;52.318;4.644;2023-05-10T12:59:18;4.93;;;3.53;;
10150;SDS011;5116;52.318;4.644;2023-05-10T13:01:45;4.33;;;3.10;;
10150;SDS011;5116;52.318;4.644;2023-05-10T13:04:13;5.97;;;3.10;;
10150;SDS011;5116;52.318;4.644;2023-05-10T13:06:40;5.37;;;3.50;;
10150;SDS011;5116;52.318;4.644;2023-05-10T13:09:07;6.87;;;3.63;;
10150;SDS011;5116;52.318;4.644;2023-05-10T13:11:35;5.00;;;3.20;;
10150;SDS011;5116;52.318;4.644;2023-05-10T13:14:02;6.20;;;3.73;;
10150;SDS011;5116;52.318;4.644;2023-05-10T13:16:30;5.00;;;3.20;;
10150;SDS011;5116;52.318;4.644;2023-05-10T13:18:58;3.53;;;2.77;;
10150;SDS011;5116;52.318;4.644;2023-05-10T13:21:26;5.80;;;3.20;;
10150;SDS011;5116;52.318;4.644;2023-05-10T13:23:53;5.90;;;3.67;;
10150;SDS011;5116;52.318;4.644;2023-05-10T13:26:20;4.57;;;3.03;;
10150;SDS011;5116;52.318;4.644;2023-05-10T13:28:48;3.80;;;3.17;;
10150;SDS011;5116;52.318;4.644;2023-05-10T13:31:17;5.93;;;3.77;;
10150;SDS011;5116;52.318;4.644;2023-05-10T13:33:45;7.73;;;4.90;;
10150;SDS011;5116;52.318;4.644;2023-05-10T13:36:12;4.63;;;3.23;;
10150;SDS011;5116;52.318;4.644;2023-05-10T13:38:40;4.67;;;3.10;;
10150;SDS011;5116;52.318;4.644;2023-05-10T13:41:07;5.97;;;3.57;;
10150;SDS011;5116;52.318;4.644;2023-05-10T13:43:35;4.93;;;3.23;;
10150;SDS011;5116;52.318;4.644;2023-05-10T13:46:02;4.53;;;2.93;;
10150;SDS011;5116;52.318;4.644;2023-05-10T13:48:30;6.03;;;3.80;;
10150;SDS011;5116;52.318;4.644;2023-05-10T13:50:58;5.40;;;3.30;;
10150;SDS011;5116;52.318;4.644;2023-05-10T13:53:25;3.97;;;3.03;;
10150;SDS011;5116;52.318;4.644;2023-05-10T13:55:52;6.13;;;3.80;;
10150;SDS011;5116;52.318;4.644;2023-05-10T13:58:20;5.17;;;3.50;;
10150;SDS011;5116;52.318;4.644;2023-05-10T14:00:47;5.47;;;3.40;;
10150;SDS011;5116;52.318;4.644;2023-05-10T14:03:15;4.77;;;3.33;;
10150;SDS011;5116;52.318;4.644;2023-05-10T14:05:43;6.60;;;3.67;;
10150;SDS011;5116;52.318;4.644;2023-05-10T14:08:11;5.67;;;3.47;;
10150;SDS011;5116;52.318;4.644;2023-05-10T14:10:39;3.37;;;2.83;;
10150;SDS011;5116;52.318;4.644;2023-05-10T14:13:06;4.07;;;3.17;;
10150;SDS011;5116;52.318;4.644;2023-05-10T14:15:34;4.83;;;3.53;;
10150;SDS011;5116;52.318;4.644;2023-05-10T14:18:01;4.50;;;3.03;;
10150;SDS011;5116;52.318;4.644;2023-05-10T14:20:29;5.30;;;3.60;;
10150;SDS011;5116;52.318;4.644;2023-05-10T14:22:58;5.63;;;3.57;;
10150;SDS011;5116;52.318;4.644;2023-05-10T14:25:25;3.43;;;2.83;;
10150;SDS011;5116;52.318;4.644;2023-05-10T14:27:53;4.20;;;3.10;;
10150;SDS011;5116;52.318;4.644;2023-05-10T14:30:21;4.80;;;2.90;;
10150;SDS011;5116;52.318;4.644;2023-05-10T14:32:48;3.87;;;3.03;;
10150;SDS011;5116;52.318;4.644;2023-05-10T14:35:16;4.13;;;3.17;;
10150;SDS011;5116;52.318;4.644;2023-05-10T14:37:45;5.13;;;3.47;;
10150;SDS011;5116;52.318;4.644;2023-05-10T14:40:12;4.67;;;3.27;;
10150;SDS011;5116;52.318;4.644;2023-05-10T14:42:41;6.00;;;3.20;;
10150;SDS011;5116;52.318;4.644;2023-05-10T14:45:10;4.10;;;2.90;;
10150;SDS011;5116;52.318;4.644;2023-05-10T14:47:38;5.97;;;3.30;;
10150;SDS011;5116;52.318;4.644;2023-05-10T14:50:05;4.30;;;2.77;;
10150;SDS011;5116;52.318;4.644;2023-05-10T14:52:33;4.27;;;3.23;;
10150;SDS011;5116;52.318;4.644;2023-05-10T14:55:01;4.57;;;3.10;;
10150;SDS011;5116;52.318;4.644;2023-05-10T14:57:28;4.90;;;3.20;;
10150;SDS011;5116;52.318;4.644;2023-05-10T14:59:56;4.13;;;3.00;;
10150;SDS011;5116;52.318;4.644;2023-05-10T15:02:24;3.93;;;3.20;;
10150;SDS011;5116;52.318;4.644;2023-05-10T15:04:52;5.40;;;3.40;;
10150;SDS011;5116;52.318;4.644;2023-05-10T15:07:19;5.90;;;3.73;;
10150;SDS011;5116;52.318;4.644;2023-05-10T15:09:47;5.23;;;3.70;;
10150;SDS011;5116;52.318;4.644;2023-05-10T15:12:14;3.73;;;3.07;;
10150;SDS011;5116;52.318;4.644;2023-05-10T15:14:41;5.00;;;3.50;;
10150;SDS011;5116;52.318;4.644;2023-05-10T15:17:09;6.30;;;3.50;;
10150;SDS011;5116;52.318;4.644;2023-05-10T15:19:36;3.90;;;2.93;;
10150;SDS011;5116;52.318;4.644;2023-05-10T15:22:04;3.17;;;2.87;;
10150;SDS011;5116;52.318;4.644;2023-05-10T15:24:31;6.77;;;3.60;;
10150;SDS011;5116;52.318;4.644;2023-05-10T15:26:59;4.37;;;3.50;;
10150;SDS011;5116;52.318;4.644;2023-05-10T15:29:27;3.83;;;2.73;;